createdAt,value
2018-12-19T00:01:12.907Z,49.50
2018-12-19T00:03:41.341Z,49.50
2018-12-19T00:06:09.718Z,49.50
2018-12-19T00:08:38.090Z,49.60
2018-12-19T00:11:06.452Z,49.60
2018-12-19T00:13:34.802Z,49.60
2018-12-19T00:16:03.158Z,49.70
2018-12-19T00:18:31.527Z,49.70
2018-12-19T00:20:59.915Z,49.80
2018-12-19T00:23:28.291Z,50.40
2018-12-19T00:25:56.654Z,49.80
2018-12-19T00:28:25.012Z,49.80
2018-12-19T00:30:53.402Z,49.80
2018-12-19T00:33:21.820Z,49.80
2018-12-19T00:35:50.195Z,49.80
2018-12-19T00:38:18.535Z,49.80
2018-12-19T00:40:46.918Z,49.90
2018-12-19T00:43:15.295Z,49.90
2018-12-19T00:45:43.671Z,49.90
2018-12-19T00:48:12.026Z,49.90
2018-12-19T00:50:40.383Z,50.00
2018-12-19T00:53:08.730Z,50.00
2018-12-19T00:55:37.087Z,50.10
2018-12-19T00:58:05.446Z,50.10
2018-12-19T01:00:33.804Z,50.10
2018-12-19T01:03:02.166Z,50.10
2018-12-19T01:05:30.546Z,50.10
2018-12-19T01:07:58.907Z,50.20
2018-12-19T01:10:27.272Z,50.20
2018-12-19T01:12:55.632Z,50.90
2018-12-19T01:15:23.975Z,50.10
2018-12-19T01:17:52.332Z,50.20
2018-12-19T01:20:20.676Z,50.20
2018-12-19T01:22:49.050Z,50.30
2018-12-19T01:25:17.419Z,50.20
2018-12-19T01:27:45.799Z,50.30
2018-12-19T01:30:14.177Z,50.30
2018-12-19T01:32:42.546Z,50.30
2018-12-19T01:35:10.904Z,50.40
2018-12-19T01:37:39.260Z,50.40
2018-12-19T01:40:07.641Z,50.50
2018-12-19T01:42:35.994Z,50.50
2018-12-19T01:45:04.620Z,50.50
2018-12-19T01:47:32.977Z,50.40
2018-12-19T01:50:01.327Z,50.60
2018-12-19T01:52:29.681Z,51.20
2018-12-19T01:54:58.039Z,50.60
2018-12-19T01:57:26.402Z,50.60
2018-12-19T01:59:54.763Z,50.70
2018-12-19T02:02:23.097Z,50.60
2018-12-19T02:04:51.470Z,50.60
2018-12-19T02:07:19.807Z,50.70
2018-12-19T02:09:48.162Z,50.70
2018-12-19T02:12:16.533Z,50.70
2018-12-19T02:14:44.903Z,50.70
2018-12-19T02:17:13.278Z,50.70
2018-12-19T02:19:41.679Z,50.70
2018-12-19T02:22:10.148Z,50.70
2018-12-19T02:24:38.491Z,50.70
2018-12-19T02:27:06.846Z,50.70
2018-12-19T02:29:35.237Z,50.90
2018-12-19T02:32:07.799Z,50.80
2018-12-19T02:34:36.279Z,50.80
2018-12-19T02:37:04.649Z,50.80
2018-12-19T02:39:36.305Z,50.80
2018-12-19T02:42:03.394Z,50.80
2018-12-19T02:44:31.748Z,50.90
2018-12-19T02:47:00.121Z,50.90
2018-12-19T02:49:28.472Z,50.90
2018-12-19T02:51:56.838Z,50.90
2018-12-19T02:54:25.298Z,50.90
2018-12-19T02:56:53.658Z,51.00
2018-12-19T02:59:22.014Z,51.00
2018-12-19T03:01:50.346Z,51.00
2018-12-19T03:04:18.721Z,51.00
2018-12-19T03:06:47.071Z,51.00
2018-12-19T03:09:15.430Z,51.00
2018-12-19T03:11:43.791Z,51.10
2018-12-19T03:14:12.159Z,51.10
2018-12-19T03:16:40.525Z,51.10
2018-12-19T03:19:08.914Z,51.10
2018-12-19T03:21:37.288Z,51.10
2018-12-19T03:24:05.657Z,51.20
2018-12-19T03:26:34.023Z,51.20
2018-12-19T03:29:02.367Z,51.20
2018-12-19T03:31:30.713Z,51.10
2018-12-19T03:33:59.068Z,51.20
2018-12-19T03:36:28.391Z,51.20
2018-12-19T03:38:56.735Z,51.20
2018-12-19T03:41:25.195Z,51.20
2018-12-19T03:43:53.539Z,51.30
2018-12-19T03:46:21.872Z,51.30
2018-12-19T03:48:56.386Z,51.30
2018-12-19T03:51:24.730Z,51.50
2018-12-19T03:53:53.390Z,51.50
2018-12-19T03:56:22.002Z,51.50
2018-12-19T03:58:50.559Z,51.40
2018-12-19T04:01:18.914Z,51.50
2018-12-19T04:03:47.267Z,51.50
2018-12-19T04:06:15.686Z,51.50
2018-12-19T04:08:44.062Z,51.50
2018-12-19T04:11:12.477Z,51.50
2018-12-19T04:13:40.832Z,52.20
2018-12-19T04:16:09.186Z,51.60
2018-12-19T04:18:37.642Z,51.60
2018-12-19T04:21:05.979Z,51.60
2018-12-19T04:23:34.345Z,51.60
2018-12-19T04:26:02.689Z,51.60
2018-12-19T04:28:31.060Z,51.70
2018-12-19T04:30:59.544Z,51.80
2018-12-19T04:33:28.151Z,51.80
2018-12-19T04:35:56.728Z,51.80
2018-12-19T04:38:25.651Z,51.80
2018-12-19T04:40:54.027Z,51.90
2018-12-19T04:43:22.377Z,51.90
2018-12-19T04:45:50.750Z,51.90
2018-12-19T04:48:19.150Z,51.90
2018-12-19T04:50:47.582Z,51.90
2018-12-19T04:53:15.943Z,52.00
2018-12-19T04:55:44.297Z,51.90
2018-12-19T04:58:12.662Z,51.90
2018-12-19T05:00:41.026Z,51.90
2018-12-19T05:03:09.440Z,52.10
2018-12-19T05:05:37.771Z,52.00
2018-12-19T05:08:06.123Z,52.00
2018-12-19T05:10:34.488Z,52.00
2018-12-19T05:13:02.841Z,52.00
2018-12-19T05:15:31.215Z,52.00
2018-12-19T05:17:59.578Z,52.10
2018-12-19T05:20:27.913Z,52.10
2018-12-19T05:22:56.283Z,52.20
2018-12-19T05:25:24.639Z,52.20
2018-12-19T05:27:52.984Z,52.20
2018-12-19T05:30:21.359Z,52.20
2018-12-19T05:32:49.716Z,52.20
2018-12-19T05:35:18.083Z,52.20
2018-12-19T05:37:46.430Z,52.20
2018-12-19T05:40:18.930Z,52.20
2018-12-19T05:42:45.135Z,52.20
2018-12-19T05:45:13.487Z,52.30
2018-12-19T05:47:42.370Z,52.40
2018-12-19T05:50:11.055Z,52.40
2018-12-19T05:52:39.419Z,52.70
2018-12-19T05:55:07.772Z,52.70
2018-12-19T05:57:36.284Z,52.70
2018-12-19T06:00:05.795Z,52.60
2018-12-19T06:02:34.153Z,52.70
2018-12-19T06:05:02.519Z,52.50
2018-12-19T06:07:30.906Z,52.50
2018-12-19T06:09:59.269Z,52.40
2018-12-19T06:12:27.603Z,52.40
2018-12-19T06:14:56.066Z,52.40
2018-12-19T06:17:24.452Z,52.40
2018-12-19T06:19:52.813Z,52.40
2018-12-19T06:22:21.191Z,52.40
2018-12-19T06:24:53.523Z,52.40
2018-12-19T06:27:21.923Z,52.50
2018-12-19T06:29:50.276Z,52.60
2018-12-19T06:32:18.611Z,52.70
2018-12-19T06:34:46.964Z,53.10
2018-12-19T06:37:15.319Z,53.00
2018-12-19T06:39:43.675Z,53.10
2018-12-19T06:42:12.934Z,53.20
2018-12-19T06:44:41.434Z,53.20
2018-12-19T06:47:09.801Z,53.30
2018-12-19T06:49:38.191Z,53.30
2018-12-19T06:52:06.551Z,53.30
2018-12-19T06:54:34.896Z,53.40
2018-12-19T06:57:03.243Z,53.40
2018-12-19T06:59:31.591Z,53.50
2018-12-19T07:01:59.994Z,53.50
2018-12-19T07:04:28.340Z,53.50
2018-12-19T07:06:56.694Z,53.60
2018-12-19T07:09:25.208Z,53.70
2018-12-19T07:11:53.589Z,53.70
2018-12-19T07:14:21.951Z,53.70
2018-12-19T07:16:50.310Z,53.80
2018-12-19T07:19:18.682Z,53.90
2018-12-19T07:21:47.027Z,53.90
2018-12-19T07:24:15.405Z,54.00
2018-12-19T07:26:43.756Z,53.90
2018-12-19T07:29:12.108Z,54.00
2018-12-19T07:31:40.435Z,53.90
2018-12-19T07:34:08.778Z,53.90
2018-12-19T07:36:37.142Z,53.90
2018-12-19T07:39:07.274Z,53.90
2018-12-19T07:41:35.802Z,53.90
2018-12-19T07:44:04.357Z,53.90
2018-12-19T07:46:32.858Z,53.90
2018-12-19T07:49:01.205Z,53.90
2018-12-19T07:51:29.625Z,53.80
2018-12-19T07:55:01.045Z,53.80
2018-12-19T07:57:29.458Z,53.90
2018-12-19T07:59:57.811Z,54.00
2018-12-19T08:02:26.159Z,54.00
2018-12-19T08:04:54.643Z,54.00
2018-12-19T08:07:23.001Z,54.10
2018-12-19T08:09:51.353Z,54.10
2018-12-19T08:12:19.729Z,54.20
2018-12-19T08:14:50.088Z,54.20
2018-12-19T08:17:18.447Z,54.20
2018-12-19T08:19:46.816Z,54.20
2018-12-19T08:22:15.197Z,54.20
2018-12-19T08:24:43.586Z,54.10
2018-12-19T08:27:11.928Z,54.10
2018-12-19T08:29:40.350Z,54.10
2018-12-19T08:32:08.690Z,54.10
2018-12-19T08:34:37.130Z,54.10
2018-12-19T08:37:05.599Z,54.20
2018-12-19T08:39:34.280Z,54.20
2018-12-19T08:42:02.767Z,54.10
2018-12-19T08:44:31.115Z,54.10
2018-12-19T08:46:59.468Z,54.10
2018-12-19T08:49:27.869Z,54.00
2018-12-19T08:51:56.212Z,54.00
2018-12-19T08:54:24.661Z,54.00
2018-12-19T08:56:53.126Z,54.00
2018-12-19T08:59:21.505Z,54.00
2018-12-19T09:01:49.881Z,54.00
2018-12-19T09:04:18.238Z,54.00
2018-12-19T09:06:46.575Z,54.00
2018-12-19T09:09:14.922Z,54.00
2018-12-19T09:11:43.291Z,54.00
2018-12-19T09:14:11.629Z,54.10
2018-12-19T09:16:39.990Z,54.10
2018-12-19T09:19:08.358Z,54.10
2018-12-19T09:21:36.722Z,54.10
2018-12-19T09:24:05.067Z,54.10
2018-12-19T09:26:33.448Z,54.00
2018-12-19T09:29:01.816Z,54.00
2018-12-19T09:31:30.193Z,54.00
2018-12-19T09:33:58.547Z,54.00
2018-12-19T09:36:26.890Z,54.00
2018-12-19T09:38:55.261Z,54.00
2018-12-19T09:41:23.599Z,54.00
2018-12-19T09:43:51.975Z,54.00
2018-12-19T09:46:20.312Z,54.00
2018-12-19T09:48:48.677Z,54.00
2018-12-19T09:51:17.044Z,54.00
2018-12-19T09:53:45.402Z,54.00
2018-12-19T09:56:14.216Z,54.00
2018-12-19T09:58:42.571Z,54.00
2018-12-19T10:01:10.948Z,54.00
2018-12-19T10:03:39.304Z,54.00
2018-12-19T10:06:07.646Z,54.00
2018-12-19T10:08:35.989Z,54.00
2018-12-19T10:11:04.332Z,54.00
2018-12-19T10:13:32.681Z,54.10
2018-12-19T10:16:01.058Z,54.00
2018-12-19T10:18:29.407Z,54.10
2018-12-19T10:20:57.765Z,54.10
2018-12-19T10:23:26.109Z,54.10
2018-12-19T10:25:59.964Z,54.10
2018-12-19T10:28:35.279Z,54.10
2018-12-19T10:31:04.047Z,54.10
2018-12-19T10:33:32.383Z,54.20
2018-12-19T10:36:00.860Z,54.10
2018-12-19T10:38:29.250Z,54.10
2018-12-19T10:40:57.630Z,54.20
2018-12-19T10:43:25.967Z,54.20
2018-12-19T10:45:54.331Z,54.20
2018-12-19T10:48:22.686Z,54.20
2018-12-19T10:51:21.822Z,54.90
2018-12-19T10:53:50.194Z,54.20
2018-12-19T10:56:19.440Z,54.20
2018-12-19T10:58:48.074Z,54.00
2018-12-19T11:01:17.069Z,54.20
2018-12-19T11:03:45.523Z,54.20
2018-12-19T11:06:13.886Z,54.10
2018-12-19T11:08:42.250Z,54.20
2018-12-19T11:11:10.635Z,54.20
2018-12-19T11:13:38.991Z,54.30
2018-12-19T11:16:07.344Z,54.30
2018-12-19T11:18:35.702Z,54.40
2018-12-19T11:21:04.183Z,54.30
2018-12-19T11:23:32.556Z,54.30
2018-12-19T11:26:00.914Z,54.30
2018-12-19T11:28:29.290Z,54.30
2018-12-19T11:30:57.663Z,54.30
2018-12-19T11:33:26.070Z,54.30
2018-12-19T11:35:55.186Z,54.30
2018-12-19T11:38:23.703Z,54.30
2018-12-19T11:40:52.074Z,54.30
2018-12-19T11:43:20.742Z,54.30
2018-12-19T11:45:49.142Z,54.20
2018-12-19T11:48:17.514Z,54.20
2018-12-19T11:50:45.972Z,54.20
2018-12-19T11:53:14.336Z,54.70
2018-12-19T11:55:42.714Z,54.20
2018-12-19T11:58:11.053Z,54.20
2018-12-19T12:00:39.407Z,54.20
2018-12-19T12:03:07.757Z,54.20
2018-12-19T12:05:36.135Z,54.20
2018-12-19T12:08:04.512Z,54.20
2018-12-19T12:10:32.876Z,54.20
2018-12-19T12:13:01.251Z,54.20
2018-12-19T12:15:29.620Z,54.20
2018-12-19T12:17:58.008Z,54.20
2018-12-19T12:20:26.362Z,54.20
2018-12-19T12:22:54.720Z,54.20
2018-12-19T12:25:23.068Z,54.90
2018-12-19T12:27:51.423Z,54.80
2018-12-19T12:30:19.822Z,54.20
2018-12-19T12:33:18.930Z,54.20
2018-12-19T12:35:47.506Z,54.20
2018-12-19T12:38:15.871Z,54.20
2018-12-19T12:40:44.531Z,54.20
2018-12-19T12:43:12.909Z,54.30
2018-12-19T12:45:41.268Z,54.30
2018-12-19T12:48:09.626Z,54.30
2018-12-19T12:50:37.999Z,54.20
2018-12-19T12:53:06.364Z,54.20
2018-12-19T12:55:34.738Z,54.20
2018-12-19T12:58:03.134Z,54.20
2018-12-19T13:00:31.499Z,54.20
2018-12-19T13:02:59.870Z,54.20
2018-12-19T13:05:28.232Z,54.20
2018-12-19T13:07:56.586Z,54.10
2018-12-19T13:10:24.923Z,54.10
2018-12-19T13:12:53.283Z,54.70
2018-12-19T13:15:27.192Z,54.10
2018-12-19T13:17:55.854Z,54.00
2018-12-19T13:20:24.211Z,54.00
2018-12-19T13:22:52.555Z,54.00
2018-12-19T13:25:20.909Z,54.00
2018-12-19T13:27:49.627Z,54.00
2018-12-19T13:30:17.999Z,54.00
2018-12-19T13:32:46.367Z,54.20
2018-12-19T13:35:14.746Z,54.20
2018-12-19T13:37:43.126Z,54.30
2018-12-19T13:40:11.508Z,54.30
2018-12-19T13:42:39.910Z,54.30
2018-12-19T13:45:08.457Z,54.40
2018-12-19T13:47:36.827Z,54.40
2018-12-19T13:50:05.702Z,54.30
2018-12-19T13:52:34.211Z,54.30
2018-12-19T13:55:02.591Z,54.40
2018-12-19T13:57:30.978Z,54.30
2018-12-19T13:59:59.331Z,54.40
2018-12-19T14:02:27.683Z,54.30
2018-12-19T14:04:56.052Z,54.30
2018-12-19T14:07:24.489Z,54.90
2018-12-19T14:09:53.079Z,54.30
2018-12-19T14:12:21.428Z,54.30
2018-12-19T14:14:49.763Z,54.30
2018-12-19T14:17:18.139Z,54.40
2018-12-19T14:19:46.495Z,54.40
2018-12-19T14:22:14.855Z,54.40
2018-12-19T14:24:43.240Z,54.50
2018-12-19T14:27:11.615Z,54.50
2018-12-19T14:29:39.978Z,54.50
2018-12-19T14:32:08.338Z,54.60
2018-12-19T14:34:36.764Z,54.70
2018-12-19T14:37:05.107Z,54.70
2018-12-19T14:39:33.482Z,54.70
2018-12-19T14:42:01.831Z,54.80
2018-12-19T14:44:30.234Z,54.70
2018-12-19T14:46:58.608Z,54.70
2018-12-19T14:49:26.951Z,54.80
2018-12-19T14:51:55.300Z,54.80
2018-12-19T14:54:23.664Z,54.80
2018-12-19T14:56:52.023Z,54.80
2018-12-19T14:59:20.383Z,54.80
2018-12-19T15:01:48.740Z,54.80
2018-12-19T15:04:17.118Z,54.90
2018-12-19T15:06:45.480Z,54.90
2018-12-19T15:09:13.840Z,54.90
2018-12-19T15:11:42.218Z,54.90
2018-12-19T15:14:10.572Z,55.00
2018-12-19T15:16:39.023Z,55.00
2018-12-19T15:19:07.386Z,55.00
2018-12-19T15:21:35.784Z,55.00
2018-12-19T15:24:04.147Z,55.00
2018-12-19T15:26:32.502Z,55.00
2018-12-19T15:29:00.882Z,55.00
2018-12-19T15:31:29.239Z,55.00
2018-12-19T15:33:57.595Z,55.00
2018-12-19T15:36:26.256Z,55.00
2018-12-19T15:38:54.630Z,55.00
2018-12-19T15:41:22.995Z,55.00
2018-12-19T15:43:51.367Z,55.00
2018-12-19T15:46:50.212Z,55.00
2018-12-19T15:49:18.594Z,55.00
2018-12-19T15:51:46.957Z,55.00
2018-12-19T15:54:15.330Z,54.90
2018-12-19T15:56:44.515Z,54.90
2018-12-19T15:59:12.890Z,54.90
2018-12-19T16:01:41.223Z,54.80
2018-12-19T16:04:09.588Z,54.80
2018-12-19T16:06:37.946Z,54.80
2018-12-19T16:09:07.266Z,54.90
2018-12-19T16:11:35.637Z,54.90
2018-12-19T16:14:06.545Z,54.90
2018-12-19T16:16:34.897Z,54.90
2018-12-19T16:19:03.265Z,54.90
2018-12-19T16:21:31.656Z,55.70
2018-12-19T16:24:00.027Z,55.10
2018-12-19T16:26:28.406Z,55.10
2018-12-19T16:28:56.760Z,55.10
2018-12-19T16:31:25.204Z,55.10
2018-12-19T16:33:54.975Z,55.10
2018-12-19T16:36:23.363Z,55.00
2018-12-19T16:38:51.734Z,54.90
2018-12-19T16:41:20.159Z,54.70
2018-12-19T16:43:48.587Z,54.50
2018-12-19T16:46:16.967Z,54.40
2018-12-19T16:48:45.374Z,54.10
2018-12-19T16:51:13.808Z,53.90
2018-12-19T16:53:42.224Z,53.70
2018-12-19T16:56:10.663Z,53.50
2018-12-19T16:58:39.038Z,53.30
2018-12-19T17:01:07.422Z,53.00
2018-12-19T17:03:36.089Z,52.80
2018-12-19T17:06:04.456Z,52.60
2018-12-19T17:08:32.825Z,52.40
2018-12-19T17:11:01.320Z,52.20
2018-12-19T17:13:29.792Z,52.00
2018-12-19T17:15:58.181Z,51.80
2018-12-19T17:18:26.571Z,51.70
2018-12-19T17:20:55.004Z,51.50
2018-12-19T17:23:23.526Z,51.30
2018-12-19T17:25:59.412Z,51.20
2018-12-19T17:28:27.881Z,51.00
2018-12-19T17:30:56.355Z,50.80
2018-12-19T17:33:24.827Z,50.60
2018-12-19T17:35:54.277Z,51.10
2018-12-19T17:38:22.651Z,50.40
2018-12-19T17:40:51.023Z,50.60
2018-12-19T17:43:19.428Z,51.00
2018-12-19T17:45:47.892Z,51.20
2018-12-19T17:48:16.252Z,50.90
2018-12-19T17:50:44.683Z,51.20
2018-12-19T17:53:13.201Z,51.00
2018-12-19T17:55:41.593Z,51.50
2018-12-19T17:58:09.983Z,50.70
2018-12-19T18:00:38.488Z,50.60
2018-12-19T18:03:07.572Z,50.50
2018-12-19T18:05:36.046Z,50.40
2018-12-19T18:08:04.424Z,50.10
2018-12-19T18:10:32.824Z,49.90
2018-12-19T18:13:06.134Z,49.80
2018-12-19T18:15:31.586Z,49.90
2018-12-19T18:18:00.014Z,49.90
2018-12-19T18:20:28.390Z,49.80
2018-12-19T18:22:56.764Z,49.80
2018-12-19T18:25:25.260Z,49.70
2018-12-19T18:27:53.644Z,49.70
2018-12-19T18:30:22.004Z,49.70
2018-12-19T18:32:50.372Z,49.70
2018-12-19T18:35:18.825Z,49.80
2018-12-19T18:37:47.304Z,49.80
2018-12-19T18:40:15.730Z,49.80
2018-12-19T18:42:44.087Z,49.70
2018-12-19T18:45:12.435Z,49.60
2018-12-19T18:47:40.820Z,49.50
2018-12-19T18:50:09.187Z,49.40
2018-12-19T18:52:37.566Z,49.30
2018-12-19T18:55:06.635Z,49.10
2018-12-19T18:57:38.379Z,48.90
2018-12-19T19:00:10.686Z,48.10
2018-12-19T19:02:41.429Z,48.20
2018-12-19T19:05:12.438Z,48.30
2018-12-19T19:07:40.806Z,48.50
2018-12-19T19:10:09.209Z,48.70
2018-12-19T19:12:37.575Z,48.80
2018-12-19T19:15:06.717Z,49.60
2018-12-19T19:17:35.191Z,49.00
2018-12-19T19:20:03.588Z,49.00
2018-12-19T19:22:31.935Z,49.10
2018-12-19T19:25:00.298Z,49.10
2018-12-19T19:27:28.663Z,49.20
2018-12-19T19:29:57.244Z,50.00
2018-12-19T19:32:25.624Z,49.20
2018-12-19T19:34:54.028Z,49.20
2018-12-19T19:37:22.400Z,49.20
2018-12-19T19:39:50.956Z,49.20
2018-12-19T19:42:19.553Z,49.20
2018-12-19T19:44:48.000Z,49.10
2018-12-19T19:47:16.380Z,49.10
2018-12-19T19:49:46.013Z,49.10
2018-12-19T19:52:14.574Z,49.00
2018-12-19T19:54:42.942Z,49.70
2018-12-19T19:57:11.737Z,49.00
2018-12-19T19:59:40.320Z,48.90
2018-12-19T20:02:08.900Z,48.90
2018-12-19T20:04:37.276Z,48.60
2018-12-19T20:07:05.788Z,48.00
2018-12-19T20:09:34.375Z,47.60
2018-12-19T20:12:02.771Z,47.40
2018-12-19T20:14:31.152Z,47.20
2018-12-19T20:17:02.048Z,47.10
2018-12-19T20:19:30.832Z,47.10
2018-12-19T20:21:59.192Z,47.00
2018-12-19T20:24:27.919Z,46.90
2018-12-19T20:26:56.365Z,46.80
2018-12-19T20:29:24.734Z,46.90
2018-12-19T20:31:53.919Z,46.80
2018-12-19T20:34:23.060Z,46.70
2018-12-19T20:36:51.463Z,46.70
2018-12-19T20:39:19.814Z,46.60
2018-12-19T20:41:48.161Z,46.60
2018-12-19T20:44:16.529Z,46.60
2018-12-19T20:46:45.046Z,46.50
2018-12-19T20:49:13.392Z,46.60
2018-12-19T20:51:42.366Z,46.60
2018-12-19T20:54:10.727Z,46.60
2018-12-19T20:56:39.149Z,46.60
2018-12-19T20:59:07.660Z,46.90
2018-12-19T21:01:36.179Z,47.10
2018-12-19T21:04:04.804Z,47.20
2018-12-19T21:06:33.177Z,47.30
2018-12-19T21:09:01.527Z,47.40
2018-12-19T21:11:29.890Z,47.40
2018-12-19T21:13:58.240Z,47.30
2018-12-19T21:16:32.747Z,47.40
2018-12-19T21:19:01.091Z,47.30
2018-12-19T21:21:29.491Z,47.30
2018-12-19T21:23:57.832Z,47.20
2018-12-19T21:26:26.163Z,47.10
2018-12-19T21:32:25.766Z,47.00
2018-12-19T21:34:54.135Z,47.20
2018-12-19T21:37:22.499Z,47.20
2018-12-19T21:39:50.868Z,47.20
2018-12-19T21:42:19.254Z,47.30
2018-12-19T21:44:47.612Z,47.40
2018-12-19T21:47:15.953Z,47.40
2018-12-19T21:49:44.342Z,47.50
2018-12-19T21:52:12.691Z,47.60
2018-12-19T21:54:41.181Z,47.60
2018-12-19T21:57:09.550Z,47.70
2018-12-19T21:59:37.971Z,47.70
2018-12-19T22:02:06.455Z,47.80
2018-12-19T22:04:35.076Z,47.80
2018-12-19T22:07:03.566Z,47.90
2018-12-19T22:09:32.122Z,48.00
2018-12-19T22:12:01.585Z,48.10
2018-12-19T22:14:30.051Z,48.10
2018-12-19T22:17:03.755Z,48.20
2018-12-19T22:19:32.257Z,48.20
2018-12-19T22:22:00.640Z,48.30
2018-12-19T22:24:29.033Z,48.30
2018-12-19T22:26:57.367Z,48.40
2018-12-19T22:29:26.180Z,48.40
2018-12-19T22:31:54.534Z,48.50
2018-12-19T22:34:22.888Z,48.50
2018-12-19T22:36:51.304Z,48.60
2018-12-19T22:39:19.782Z,48.70
2018-12-19T22:41:48.230Z,48.80
2018-12-19T22:44:16.579Z,48.80
2018-12-19T22:46:44.913Z,48.90
2018-12-19T22:49:13.312Z,49.00
2018-12-19T22:51:41.750Z,49.00
2018-12-19T22:54:10.124Z,49.00
2018-12-19T22:56:38.476Z,49.00
2018-12-19T22:59:06.921Z,49.10
2018-12-19T23:01:40.769Z,49.20
2018-12-19T23:04:09.326Z,49.20
2018-12-19T23:06:37.794Z,49.30
2018-12-19T23:09:07.147Z,49.30
2018-12-19T23:11:35.960Z,49.40
2018-12-19T23:14:04.601Z,49.50
2018-12-19T23:16:33.025Z,49.60
2018-12-19T23:19:01.698Z,49.60
2018-12-19T23:21:30.195Z,49.70
2018-12-19T23:23:58.580Z,49.70
2018-12-19T23:26:26.938Z,49.90
2018-12-19T23:29:00.695Z,50.00
2018-12-19T23:31:29.154Z,49.90
2018-12-19T23:33:57.638Z,50.10
2018-12-19T23:36:26.042Z,50.10
2018-12-19T23:38:54.407Z,50.10
2018-12-19T23:41:22.775Z,50.10
2018-12-19T23:43:51.137Z,50.10
2018-12-19T23:46:22.457Z,50.20
2018-12-19T23:48:50.975Z,50.30
2018-12-19T23:51:19.447Z,50.30
2018-12-19T23:53:47.921Z,50.40
2018-12-19T23:56:16.480Z,50.40
2018-12-19T23:58:45.004Z,50.50
